sensor_id;sensor_type;location;lat;lon;timestamp;P1;durP1;ratioP1;P2;durP2;ratioP2
61505;SDS011;47366;51.916;4.574;2023-08-06T00:00:38;1.48;;;1.00;;
61505;SDS011;47366;51.916;4.574;2023-08-06T00:03:04;3.03;;;1.65;;
61505;SDS011;47366;51.916;4.574;2023-08-06T00:05:29;2.15;;;1.38;;
61505;SDS011;47366;51.916;4.574;2023-08-06T00:07:54;2.67;;;1.60;;
61505;SDS011;47366;51.916;4.574;2023-08-06T00:10:20;2.75;;;1.50;;
61505;SDS011;47366;51.916;4.574;2023-08-06T00:12:45;1.75;;;1.38;;
61505;SDS011;47366;51.916;4.574;2023-08-06T00:15:11;2.38;;;1.52;;
61505;SDS011;47366;51.916;4.574;2023-08-06T00:17:36;2.63;;;1.65;;
61505;SDS011;47366;51.916;4.574;2023-08-06T00:20:02;2.03;;;1.60;;
61505;SDS011;47366;51.916;4.574;2023-08-06T00:22:30;2.13;;;1.40;;
61505;SDS011;47366;51.916;4.574;2023-08-06T00:24:59;1.85;;;1.23;;
61505;SDS011;47366;51.916;4.574;2023-08-06T00:27:25;2.65;;;1.65;;
61505;SDS011;47366;51.916;4.574;2023-08-06T00:29:50;2.22;;;1.55;;
61505;SDS011;47366;51.916;4.574;2023-08-06T00:32:16;2.88;;;1.67;;
61505;SDS011;47366;51.916;4.574;2023-08-06T00:34:41;2.47;;;1.50;;
61505;SDS011;47366;51.916;4.574;2023-08-06T00:37:06;2.22;;;1.13;;
61505;SDS011;47366;51.916;4.574;2023-08-06T00:39:32;2.92;;;1.42;;
61505;SDS011;47366;51.916;4.574;2023-08-06T00:41:58;2.67;;;1.70;;
61505;SDS011;47366;51.916;4.574;2023-08-06T00:44:23;2.13;;;1.35;;
61505;SDS011;47366;51.916;4.574;2023-08-06T00:46:49;1.75;;;1.30;;
61505;SDS011;47366;51.916;4.574;2023-08-06T00:49:14;2.25;;;1.45;;
61505;SDS011;47366;51.916;4.574;2023-08-06T00:51:39;2.35;;;1.70;;
61505;SDS011;47366;51.916;4.574;2023-08-06T00:54:05;1.95;;;1.48;;
61505;SDS011;47366;51.916;4.574;2023-08-06T00:56:31;3.78;;;1.70;;
61505;SDS011;47366;51.916;4.574;2023-08-06T00:59:00;2.90;;;1.73;;
61505;SDS011;47366;51.916;4.574;2023-08-06T01:01:26;2.45;;;1.45;;
61505;SDS011;47366;51.916;4.574;2023-08-06T01:03:52;2.60;;;1.55;;
61505;SDS011;47366;51.916;4.574;2023-08-06T01:06:19;2.67;;;1.65;;
61505;SDS011;47366;51.916;4.574;2023-08-06T01:08:57;3.08;;;1.60;;
61505;SDS011;47366;51.916;4.574;2023-08-06T01:11:30;2.53;;;1.38;;
61505;SDS011;47366;51.916;4.574;2023-08-06T01:14:18;3.20;;;1.75;;
61505;SDS011;47366;51.916;4.574;2023-08-06T01:16:50;2.55;;;1.50;;
61505;SDS011;47366;51.916;4.574;2023-08-06T01:19:20;2.80;;;1.60;;
61505;SDS011;47366;51.916;4.574;2023-08-06T01:21:46;2.50;;;1.40;;
61505;SDS011;47366;51.916;4.574;2023-08-06T01:24:11;1.52;;;1.33;;
61505;SDS011;47366;51.916;4.574;2023-08-06T01:26:45;2.20;;;1.42;;
61505;SDS011;47366;51.916;4.574;2023-08-06T01:29:20;2.42;;;1.30;;
61505;SDS011;47366;51.916;4.574;2023-08-06T01:31:50;3.33;;;1.67;;
61505;SDS011;47366;51.916;4.574;2023-08-06T01:34:20;2.78;;;1.83;;
61505;SDS011;47366;51.916;4.574;2023-08-06T01:36:47;2.50;;;1.67;;
61505;SDS011;47366;51.916;4.574;2023-08-06T01:39:12;2.10;;;1.38;;
61505;SDS011;47366;51.916;4.574;2023-08-06T01:41:38;2.78;;;1.90;;
61505;SDS011;47366;51.916;4.574;2023-08-06T01:44:03;2.50;;;1.35;;
61505;SDS011;47366;51.916;4.574;2023-08-06T01:46:30;2.58;;;1.42;;
61505;SDS011;47366;51.916;4.574;2023-08-06T01:48:55;2.95;;;1.52;;
61505;SDS011;47366;51.916;4.574;2023-08-06T01:51:20;2.05;;;1.33;;
61505;SDS011;47366;51.916;4.574;2023-08-06T01:53:46;2.70;;;1.63;;
61505;SDS011;47366;51.916;4.574;2023-08-06T01:56:11;1.90;;;1.40;;
61505;SDS011;47366;51.916;4.574;2023-08-06T01:58:36;3.60;;;2.00;;
61505;SDS011;47366;51.916;4.574;2023-08-06T02:01:02;2.47;;;1.58;;
61505;SDS011;47366;51.916;4.574;2023-08-06T02:03:27;2.17;;;1.58;;
61505;SDS011;47366;51.916;4.574;2023-08-06T02:05:53;3.03;;;1.80;;
61505;SDS011;47366;51.916;4.574;2023-08-06T02:08:18;2.42;;;1.65;;
61505;SDS011;47366;51.916;4.574;2023-08-06T02:10:44;6.60;;;2.20;;
61505;SDS011;47366;51.916;4.574;2023-08-06T02:13:10;3.65;;;2.00;;
61505;SDS011;47366;51.916;4.574;2023-08-06T02:15:35;3.25;;;1.75;;
61505;SDS011;47366;51.916;4.574;2023-08-06T02:18:00;2.35;;;1.70;;
61505;SDS011;47366;51.916;4.574;2023-08-06T02:20:26;3.28;;;1.60;;
61505;SDS011;47366;51.916;4.574;2023-08-06T02:22:51;2.20;;;1.52;;
61505;SDS011;47366;51.916;4.574;2023-08-06T02:25:16;4.22;;;1.42;;
61505;SDS011;47366;51.916;4.574;2023-08-06T02:27:42;2.10;;;1.45;;
61505;SDS011;47366;51.916;4.574;2023-08-06T02:30:07;5.95;;;2.05;;
61505;SDS011;47366;51.916;4.574;2023-08-06T02:32:33;2.83;;;1.70;;
61505;SDS011;47366;51.916;4.574;2023-08-06T02:35:00;3.30;;;1.88;;
61505;SDS011;47366;51.916;4.574;2023-08-06T02:37:27;3.00;;;1.90;;
61505;SDS011;47366;51.916;4.574;2023-08-06T02:39:52;3.08;;;1.95;;
61505;SDS011;47366;51.916;4.574;2023-08-06T02:42:18;3.28;;;1.75;;
61505;SDS011;47366;51.916;4.574;2023-08-06T02:44:43;2.28;;;1.40;;
61505;SDS011;47366;51.916;4.574;2023-08-06T02:47:08;2.67;;;1.52;;
61505;SDS011;47366;51.916;4.574;2023-08-06T02:49:34;2.90;;;1.75;;
61505;SDS011;47366;51.916;4.574;2023-08-06T02:51:59;1.80;;;1.30;;
61505;SDS011;47366;51.916;4.574;2023-08-06T02:54:25;3.08;;;1.80;;
61505;SDS011;47366;51.916;4.574;2023-08-06T02:56:50;2.15;;;1.45;;
61505;SDS011;47366;51.916;4.574;2023-08-06T02:59:16;3.10;;;1.90;;
61505;SDS011;47366;51.916;4.574;2023-08-06T03:01:41;5.05;;;1.90;;
61505;SDS011;47366;51.916;4.574;2023-08-06T03:04:06;2.55;;;1.77;;
61505;SDS011;47366;51.916;4.574;2023-08-06T03:06:32;2.90;;;1.75;;
61505;SDS011;47366;51.916;4.574;2023-08-06T03:08:57;2.28;;;1.65;;
61505;SDS011;47366;51.916;4.574;2023-08-06T03:11:22;3.53;;;2.03;;
61505;SDS011;47366;51.916;4.574;2023-08-06T03:13:48;3.20;;;2.28;;
61505;SDS011;47366;51.916;4.574;2023-08-06T03:16:13;3.15;;;2.30;;
61505;SDS011;47366;51.916;4.574;2023-08-06T03:18:39;2.97;;;1.90;;
61505;SDS011;47366;51.916;4.574;2023-08-06T03:21:05;5.03;;;2.40;;
61505;SDS011;47366;51.916;4.574;2023-08-06T03:23:30;4.00;;;2.38;;
61505;SDS011;47366;51.916;4.574;2023-08-06T03:25:55;3.28;;;1.75;;
61505;SDS011;47366;51.916;4.574;2023-08-06T03:28:21;3.20;;;1.67;;
61505;SDS011;47366;51.916;4.574;2023-08-06T03:30:47;2.08;;;1.38;;
61505;SDS011;47366;51.916;4.574;2023-08-06T03:33:13;1.67;;;1.05;;
61505;SDS011;47366;51.916;4.574;2023-08-06T03:35:38;1.30;;;0.70;;
61505;SDS011;47366;51.916;4.574;2023-08-06T03:38:04;0.40;;;0.40;;
61505;SDS011;47366;51.916;4.574;2023-08-06T03:40:29;0.30;;;0.20;;
61505;SDS011;47366;51.916;4.574;2023-08-06T03:42:55;0.10;;;0.10;;
61505;SDS011;47366;51.916;4.574;2023-08-06T03:45:20;0.20;;;0.13;;
61505;SDS011;47366;51.916;4.574;2023-08-06T03:47:45;0.43;;;0.30;;
61505;SDS011;47366;51.916;4.574;2023-08-06T03:50:11;0.10;;;0.10;;
61505;SDS011;47366;51.916;4.574;2023-08-06T03:52:36;0.85;;;0.20;;
61505;SDS011;47366;51.916;4.574;2023-08-06T03:55:02;0.17;;;0.13;;
61505;SDS011;47366;51.916;4.574;2023-08-06T03:57:27;0.57;;;0.50;;
61505;SDS011;47366;51.916;4.574;2023-08-06T03:59:53;0.40;;;0.32;;
61505;SDS011;47366;51.916;4.574;2023-08-06T04:02:18;0.93;;;0.70;;
61505;SDS011;47366;51.916;4.574;2023-08-06T04:04:43;0.60;;;0.50;;
61505;SDS011;47366;51.916;4.574;2023-08-06T04:07:09;0.85;;;0.57;;
61505;SDS011;47366;51.916;4.574;2023-08-06T04:09:35;1.30;;;0.82;;
61505;SDS011;47366;51.916;4.574;2023-08-06T04:12:17;1.50;;;1.00;;
61505;SDS011;47366;51.916;4.574;2023-08-06T04:14:42;2.55;;;1.10;;
61505;SDS011;47366;51.916;4.574;2023-08-06T04:17:08;2.13;;;0.98;;
61505;SDS011;47366;51.916;4.574;2023-08-06T04:19:33;1.58;;;0.90;;
61505;SDS011;47366;51.916;4.574;2023-08-06T04:21:58;3.55;;;0.95;;
61505;SDS011;47366;51.916;4.574;2023-08-06T04:24:24;1.80;;;0.82;;
61505;SDS011;47366;51.916;4.574;2023-08-06T04:26:49;1.77;;;1.10;;
61505;SDS011;47366;51.916;4.574;2023-08-06T04:29:14;1.80;;;1.10;;
61505;SDS011;47366;51.916;4.574;2023-08-06T04:31:40;3.70;;;0.80;;
61505;SDS011;47366;51.916;4.574;2023-08-06T04:34:05;1.77;;;1.08;;
61505;SDS011;47366;51.916;4.574;2023-08-06T04:36:31;1.85;;;0.85;;
61505;SDS011;47366;51.916;4.574;2023-08-06T04:38:56;2.65;;;0.90;;
61505;SDS011;47366;51.916;4.574;2023-08-06T04:41:21;1.38;;;0.70;;
61505;SDS011;47366;51.916;4.574;2023-08-06T04:43:47;1.75;;;0.63;;
61505;SDS011;47366;51.916;4.574;2023-08-06T04:46:12;1.38;;;0.90;;
61505;SDS011;47366;51.916;4.574;2023-08-06T04:48:37;0.90;;;0.70;;
61505;SDS011;47366;51.916;4.574;2023-08-06T04:51:03;1.30;;;0.73;;
61505;SDS011;47366;51.916;4.574;2023-08-06T04:53:28;3.40;;;1.40;;
61505;SDS011;47366;51.916;4.574;2023-08-06T04:55:53;1.50;;;0.98;;
61505;SDS011;47366;51.916;4.574;2023-08-06T04:58:19;1.20;;;0.90;;
61505;SDS011;47366;51.916;4.574;2023-08-06T05:00:44;1.52;;;0.85;;
61505;SDS011;47366;51.916;4.574;2023-08-06T05:03:10;1.13;;;0.88;;
61505;SDS011;47366;51.916;4.574;2023-08-06T05:05:35;0.65;;;0.60;;
61505;SDS011;47366;51.916;4.574;2023-08-06T05:08:00;1.92;;;0.93;;
61505;SDS011;47366;51.916;4.574;2023-08-06T05:10:26;1.45;;;0.90;;
61505;SDS011;47366;51.916;4.574;2023-08-06T05:12:52;0.77;;;0.55;;
61505;SDS011;47366;51.916;4.574;2023-08-06T05:15:18;2.85;;;0.90;;
61505;SDS011;47366;51.916;4.574;2023-08-06T05:17:43;1.63;;;1.13;;
61505;SDS011;47366;51.916;4.574;2023-08-06T05:20:09;1.77;;;1.02;;
61505;SDS011;47366;51.916;4.574;2023-08-06T05:22:35;2.03;;;0.88;;
61505;SDS011;47366;51.916;4.574;2023-08-06T05:25:00;1.80;;;0.88;;
61505;SDS011;47366;51.916;4.574;2023-08-06T05:27:26;1.50;;;0.88;;
61505;SDS011;47366;51.916;4.574;2023-08-06T05:29:54;1.63;;;0.90;;
61505;SDS011;47366;51.916;4.574;2023-08-06T05:32:21;1.67;;;0.77;;
61505;SDS011;47366;51.916;4.574;2023-08-06T05:34:46;1.05;;;0.85;;
61505;SDS011;47366;51.916;4.574;2023-08-06T05:37:11;1.92;;;1.20;;
61505;SDS011;47366;51.916;4.574;2023-08-06T05:39:37;3.38;;;1.40;;
61505;SDS011;47366;51.916;4.574;2023-08-06T05:42:02;1.25;;;0.80;;
61505;SDS011;47366;51.916;4.574;2023-08-06T05:44:28;0.68;;;0.68;;
61505;SDS011;47366;51.916;4.574;2023-08-06T05:46:53;2.15;;;1.02;;
61505;SDS011;47366;51.916;4.574;2023-08-06T05:49:18;1.45;;;1.00;;
61505;SDS011;47366;51.916;4.574;2023-08-06T05:51:44;2.22;;;1.33;;
61505;SDS011;47366;51.916;4.574;2023-08-06T05:54:09;1.42;;;0.80;;
61505;SDS011;47366;51.916;4.574;2023-08-06T05:56:34;1.55;;;0.90;;
61505;SDS011;47366;51.916;4.574;2023-08-06T05:59:00;1.42;;;0.82;;
61505;SDS011;47366;51.916;4.574;2023-08-06T06:01:25;1.60;;;0.70;;
61505;SDS011;47366;51.916;4.574;2023-08-06T06:03:51;1.35;;;0.82;;
61505;SDS011;47366;51.916;4.574;2023-08-06T06:06:16;2.45;;;1.00;;
61505;SDS011;47366;51.916;4.574;2023-08-06T06:08:43;0.90;;;0.60;;
61505;SDS011;47366;51.916;4.574;2023-08-06T06:11:09;1.95;;;0.80;;
61505;SDS011;47366;51.916;4.574;2023-08-06T06:13:34;1.25;;;0.75;;
61505;SDS011;47366;51.916;4.574;2023-08-06T06:16:00;2.28;;;0.90;;
61505;SDS011;47366;51.916;4.574;2023-08-06T06:18:25;0.80;;;0.60;;
61505;SDS011;47366;51.916;4.574;2023-08-06T06:20:51;2.22;;;0.68;;
61505;SDS011;47366;51.916;4.574;2023-08-06T06:23:16;0.65;;;0.40;;
61505;SDS011;47366;51.916;4.574;2023-08-06T06:25:42;1.40;;;0.77;;
61505;SDS011;47366;51.916;4.574;2023-08-06T06:28:08;0.50;;;0.30;;
61505;SDS011;47366;51.916;4.574;2023-08-06T06:30:34;1.70;;;0.70;;
61505;SDS011;47366;51.916;4.574;2023-08-06T06:32:59;1.27;;;0.52;;
61505;SDS011;47366;51.916;4.574;2023-08-06T06:35:25;2.85;;;0.77;;
61505;SDS011;47366;51.916;4.574;2023-08-06T06:37:50;1.08;;;0.47;;
61505;SDS011;47366;51.916;4.574;2023-08-06T06:40:16;0.75;;;0.40;;
61505;SDS011;47366;51.916;4.574;2023-08-06T06:42:41;0.47;;;0.47;;
61505;SDS011;47366;51.916;4.574;2023-08-06T06:45:07;2.60;;;1.20;;
61505;SDS011;47366;51.916;4.574;2023-08-06T06:47:33;2.25;;;0.68;;
61505;SDS011;47366;51.916;4.574;2023-08-06T06:49:58;1.15;;;0.45;;
61505;SDS011;47366;51.916;4.574;2023-08-06T06:52:24;0.32;;;0.30;;
61505;SDS011;47366;51.916;4.574;2023-08-06T06:54:49;0.55;;;0.40;;
61505;SDS011;47366;51.916;4.574;2023-08-06T06:57:14;2.50;;;0.60;;
61505;SDS011;47366;51.916;4.574;2023-08-06T06:59:40;0.70;;;0.40;;
61505;SDS011;47366;51.916;4.574;2023-08-06T07:02:05;0.65;;;0.38;;
61505;SDS011;47366;51.916;4.574;2023-08-06T07:04:31;0.60;;;0.40;;
61505;SDS011;47366;51.916;4.574;2023-08-06T07:06:56;0.95;;;0.45;;
61505;SDS011;47366;51.916;4.574;2023-08-06T07:09:21;0.80;;;0.40;;
61505;SDS011;47366;51.916;4.574;2023-08-06T07:11:47;0.80;;;0.30;;
61505;SDS011;47366;51.916;4.574;2023-08-06T07:14:12;1.40;;;0.70;;
61505;SDS011;47366;51.916;4.574;2023-08-06T07:16:39;0.25;;;0.22;;
61505;SDS011;47366;51.916;4.574;2023-08-06T07:19:05;0.40;;;0.30;;
61505;SDS011;47366;51.916;4.574;2023-08-06T07:21:30;1.08;;;0.40;;
61505;SDS011;47366;51.916;4.574;2023-08-06T07:23:56;1.48;;;0.45;;
61505;SDS011;47366;51.916;4.574;2023-08-06T07:26:22;2.13;;;0.70;;
61505;SDS011;47366;51.916;4.574;2023-08-06T07:28:47;1.63;;;0.52;;
61505;SDS011;47366;51.916;4.574;2023-08-06T07:31:12;0.70;;;0.40;;
61505;SDS011;47366;51.916;4.574;2023-08-06T07:33:38;1.65;;;0.45;;
61505;SDS011;47366;51.916;4.574;2023-08-06T07:36:10;0.52;;;0.35;;
61505;SDS011;47366;51.916;4.574;2023-08-06T07:38:37;1.60;;;0.75;;
61505;SDS011;47366;51.916;4.574;2023-08-06T07:41:03;1.13;;;0.63;;
61505;SDS011;47366;51.916;4.574;2023-08-06T07:43:28;1.33;;;0.45;;
61505;SDS011;47366;51.916;4.574;2023-08-06T07:45:54;0.93;;;0.60;;
61505;SDS011;47366;51.916;4.574;2023-08-06T07:48:23;1.17;;;0.63;;
61505;SDS011;47366;51.916;4.574;2023-08-06T07:50:51;1.10;;;0.75;;
61505;SDS011;47366;51.916;4.574;2023-08-06T07:53:20;2.25;;;0.70;;
61505;SDS011;47366;51.916;4.574;2023-08-06T07:55:50;2.70;;;0.77;;
61505;SDS011;47366;51.916;4.574;2023-08-06T07:58:17;0.98;;;0.70;;
61505;SDS011;47366;51.916;4.574;2023-08-06T08:00:42;1.83;;;0.75;;
61505;SDS011;47366;51.916;4.574;2023-08-06T08:03:10;1.38;;;0.68;;
61505;SDS011;47366;51.916;4.574;2023-08-06T08:05:37;1.63;;;0.80;;
61505;SDS011;47366;51.916;4.574;2023-08-06T08:08:02;2.13;;;0.55;;
61505;SDS011;47366;51.916;4.574;2023-08-06T08:10:28;0.75;;;0.50;;
61505;SDS011;47366;51.916;4.574;2023-08-06T08:12:53;1.90;;;0.65;;
61505;SDS011;47366;51.916;4.574;2023-08-06T08:15:18;1.95;;;0.70;;
61505;SDS011;47366;51.916;4.574;2023-08-06T08:17:44;0.95;;;0.65;;
61505;SDS011;47366;51.916;4.574;2023-08-06T08:20:09;0.73;;;0.55;;
61505;SDS011;47366;51.916;4.574;2023-08-06T08:22:35;1.10;;;0.70;;
61505;SDS011;47366;51.916;4.574;2023-08-06T08:25:00;0.65;;;0.40;;
61505;SDS011;47366;51.916;4.574;2023-08-06T08:27:25;0.85;;;0.50;;
61505;SDS011;47366;51.916;4.574;2023-08-06T08:29:51;1.75;;;0.55;;
61505;SDS011;47366;51.916;4.574;2023-08-06T08:32:16;3.40;;;0.63;;
61505;SDS011;47366;51.916;4.574;2023-08-06T08:34:42;0.80;;;0.55;;
61505;SDS011;47366;51.916;4.574;2023-08-06T08:37:07;2.42;;;0.57;;
61505;SDS011;47366;51.916;4.574;2023-08-06T08:39:32;0.98;;;0.70;;
61505;SDS011;47366;51.916;4.574;2023-08-06T08:41:58;1.42;;;0.88;;
61505;SDS011;47366;51.916;4.574;2023-08-06T08:44:23;1.42;;;0.68;;
61505;SDS011;47366;51.916;4.574;2023-08-06T08:46:53;0.82;;;0.60;;
61505;SDS011;47366;51.916;4.574;2023-08-06T08:49:18;1.05;;;0.50;;
61505;SDS011;47366;51.916;4.574;2023-08-06T08:51:46;0.93;;;0.65;;
61505;SDS011;47366;51.916;4.574;2023-08-06T08:54:13;1.05;;;0.57;;
61505;SDS011;47366;51.916;4.574;2023-08-06T08:56:40;2.95;;;0.73;;
61505;SDS011;47366;51.916;4.574;2023-08-06T08:59:06;1.45;;;0.77;;
61505;SDS011;47366;51.916;4.574;2023-08-06T09:01:31;1.38;;;0.60;;
61505;SDS011;47366;51.916;4.574;2023-08-06T09:03:57;0.95;;;0.55;;
61505;SDS011;47366;51.916;4.574;2023-08-06T09:06:25;2.75;;;0.60;;
61505;SDS011;47366;51.916;4.574;2023-08-06T09:09:06;0.63;;;0.45;;
61505;SDS011;47366;51.916;4.574;2023-08-06T09:11:35;3.00;;;0.75;;
61505;SDS011;47366;51.916;4.574;2023-08-06T09:14:06;1.75;;;0.77;;
61505;SDS011;47366;51.916;4.574;2023-08-06T09:16:36;0.82;;;0.40;;
61505;SDS011;47366;51.916;4.574;2023-08-06T09:19:11;0.77;;;0.50;;
61505;SDS011;47366;51.916;4.574;2023-08-06T09:21:41;0.80;;;0.43;;
61505;SDS011;47366;51.916;4.574;2023-08-06T09:24:13;0.63;;;0.43;;
61505;SDS011;47366;51.916;4.574;2023-08-06T09:26:40;1.23;;;0.55;;
61505;SDS011;47366;51.916;4.574;2023-08-06T09:29:06;1.17;;;0.57;;
61505;SDS011;47366;51.916;4.574;2023-08-06T09:31:42;0.88;;;0.60;;
61505;SDS011;47366;51.916;4.574;2023-08-06T09:34:18;0.63;;;0.40;;
61505;SDS011;47366;51.916;4.574;2023-08-06T09:36:46;1.50;;;0.60;;
61505;SDS011;47366;51.916;4.574;2023-08-06T09:39:12;0.65;;;0.57;;
61505;SDS011;47366;51.916;4.574;2023-08-06T09:41:41;1.98;;;0.50;;
61505;SDS011;47366;51.916;4.574;2023-08-06T09:46:54;1.42;;;0.52;;
61505;SDS011;47366;51.916;4.574;2023-08-06T09:49:28;1.30;;;0.57;;
61505;SDS011;47366;51.916;4.574;2023-08-06T09:51:57;1.77;;;0.90;;
61505;SDS011;47366;51.916;4.574;2023-08-06T09:54:24;1.08;;;0.70;;
61505;SDS011;47366;51.916;4.574;2023-08-06T09:56:55;1.50;;;0.45;;
61505;SDS011;47366;51.916;4.574;2023-08-06T09:59:22;0.35;;;0.30;;
61505;SDS011;47366;51.916;4.574;2023-08-06T10:01:48;0.45;;;0.30;;
61505;SDS011;47366;51.916;4.574;2023-08-06T10:04:14;0.55;;;0.43;;
61505;SDS011;47366;51.916;4.574;2023-08-06T10:06:46;0.90;;;0.50;;
61505;SDS011;47366;51.916;4.574;2023-08-06T10:09:15;2.38;;;0.63;;
61505;SDS011;47366;51.916;4.574;2023-08-06T10:11:41;0.82;;;0.55;;
61505;SDS011;47366;51.916;4.574;2023-08-06T10:14:12;0.25;;;0.22;;
61505;SDS011;47366;51.916;4.574;2023-08-06T10:16:41;0.35;;;0.30;;
61505;SDS011;47366;51.916;4.574;2023-08-06T10:19:09;0.65;;;0.30;;
61505;SDS011;47366;51.916;4.574;2023-08-06T10:21:39;0.30;;;0.30;;
61505;SDS011;47366;51.916;4.574;2023-08-06T10:24:08;1.65;;;0.45;;
61505;SDS011;47366;51.916;4.574;2023-08-06T10:26:36;1.95;;;0.38;;
61505;SDS011;47366;51.916;4.574;2023-08-06T10:29:30;1.20;;;0.45;;
61505;SDS011;47366;51.916;4.574;2023-08-06T10:32:03;0.40;;;0.40;;
61505;SDS011;47366;51.916;4.574;2023-08-06T10:37:21;0.50;;;0.30;;
61505;SDS011;47366;51.916;4.574;2023-08-06T10:39:51;0.30;;;0.28;;
61505;SDS011;47366;51.916;4.574;2023-08-06T10:42:50;0.65;;;0.30;;
61505;SDS011;47366;51.916;4.574;2023-08-06T10:47:41;0.52;;;0.32;;
61505;SDS011;47366;51.916;4.574;2023-08-06T10:50:07;0.95;;;0.40;;
61505;SDS011;47366;51.916;4.574;2023-08-06T10:52:35;1.77;;;0.40;;
61505;SDS011;47366;51.916;4.574;2023-08-06T10:55:01;0.30;;;0.30;;
61505;SDS011;47366;51.916;4.574;2023-08-06T10:57:26;0.70;;;0.30;;
61505;SDS011;47366;51.916;4.574;2023-08-06T10:59:51;1.60;;;0.50;;
61505;SDS011;47366;51.916;4.574;2023-08-06T11:02:17;0.63;;;0.30;;
61505;SDS011;47366;51.916;4.574;2023-08-06T11:04:42;1.10;;;0.45;;
61505;SDS011;47366;51.916;4.574;2023-08-06T11:07:08;1.02;;;0.65;;
61505;SDS011;47366;51.916;4.574;2023-08-06T11:09:33;0.55;;;0.50;;
61505;SDS011;47366;51.916;4.574;2023-08-06T11:11:59;0.77;;;0.60;;
61505;SDS011;47366;51.916;4.574;2023-08-06T11:14:24;0.70;;;0.60;;
61505;SDS011;47366;51.916;4.574;2023-08-06T11:16:50;0.70;;;0.40;;
61505;SDS011;47366;51.916;4.574;2023-08-06T11:19:15;1.25;;;0.47;;
61505;SDS011;47366;51.916;4.574;2023-08-06T11:21:41;0.57;;;0.32;;
61505;SDS011;47366;51.916;4.574;2023-08-06T11:24:10;1.30;;;0.60;;
61505;SDS011;47366;51.916;4.574;2023-08-06T11:26:36;0.35;;;0.35;;
61505;SDS011;47366;51.916;4.574;2023-08-06T11:29:02;0.80;;;0.40;;
61505;SDS011;47366;51.916;4.574;2023-08-06T11:31:28;0.75;;;0.57;;
61505;SDS011;47366;51.916;4.574;2023-08-06T11:33:54;0.90;;;0.40;;
61505;SDS011;47366;51.916;4.574;2023-08-06T11:36:32;0.88;;;0.43;;
61505;SDS011;47366;51.916;4.574;2023-08-06T11:38:59;0.70;;;0.47;;
61505;SDS011;47366;51.916;4.574;2023-08-06T11:41:27;0.90;;;0.57;;
61505;SDS011;47366;51.916;4.574;2023-08-06T11:43:53;2.10;;;0.38;;
61505;SDS011;47366;51.916;4.574;2023-08-06T11:46:18;0.50;;;0.38;;
61505;SDS011;47366;51.916;4.574;2023-08-06T11:48:56;1.10;;;0.60;;
61505;SDS011;47366;51.916;4.574;2023-08-06T11:51:23;1.20;;;0.30;;
61505;SDS011;47366;51.916;4.574;2023-08-06T11:53:56;0.35;;;0.20;;
61505;SDS011;47366;51.916;4.574;2023-08-06T11:56:22;1.75;;;0.40;;
61505;SDS011;47366;51.916;4.574;2023-08-06T11:58:48;0.90;;;0.47;;
61505;SDS011;47366;51.916;4.574;2023-08-06T12:01:13;1.42;;;0.50;;
61505;SDS011;47366;51.916;4.574;2023-08-06T12:03:39;0.93;;;0.40;;
61505;SDS011;47366;51.916;4.574;2023-08-06T12:06:05;1.27;;;0.30;;
61505;SDS011;47366;51.916;4.574;2023-08-06T12:08:32;0.85;;;0.30;;
61505;SDS011;47366;51.916;4.574;2023-08-06T12:10:57;0.70;;;0.35;;
61505;SDS011;47366;51.916;4.574;2023-08-06T12:13:23;1.88;;;0.47;;
61505;SDS011;47366;51.916;4.574;2023-08-06T12:15:48;0.82;;;0.43;;
61505;SDS011;47366;51.916;4.574;2023-08-06T12:18:14;1.58;;;0.55;;
61505;SDS011;47366;51.916;4.574;2023-08-06T12:20:39;0.77;;;0.30;;
61505;SDS011;47366;51.916;4.574;2023-08-06T12:23:05;0.60;;;0.40;;
61505;SDS011;47366;51.916;4.574;2023-08-06T12:25:30;0.52;;;0.32;;
61505;SDS011;47366;51.916;4.574;2023-08-06T12:27:55;0.13;;;0.10;;
61505;SDS011;47366;51.916;4.574;2023-08-06T12:30:21;2.00;;;0.60;;
61505;SDS011;47366;51.916;4.574;2023-08-06T12:32:46;1.67;;;0.30;;
61505;SDS011;47366;51.916;4.574;2023-08-06T12:35:12;0.40;;;0.25;;
61505;SDS011;47366;51.916;4.574;2023-08-06T12:37:39;0.20;;;0.20;;
61505;SDS011;47366;51.916;4.574;2023-08-06T12:40:04;1.30;;;0.35;;
61505;SDS011;47366;51.916;4.574;2023-08-06T12:42:30;0.60;;;0.35;;
61505;SDS011;47366;51.916;4.574;2023-08-06T12:44:55;0.52;;;0.40;;
61505;SDS011;47366;51.916;4.574;2023-08-06T12:47:21;1.40;;;0.40;;
61505;SDS011;47366;51.916;4.574;2023-08-06T12:49:47;0.17;;;0.10;;
61505;SDS011;47366;51.916;4.574;2023-08-06T12:52:14;0.60;;;0.28;;
61505;SDS011;47366;51.916;4.574;2023-08-06T12:54:40;1.60;;;0.38;;
61505;SDS011;47366;51.916;4.574;2023-08-06T12:57:05;0.68;;;0.28;;
61505;SDS011;47366;51.916;4.574;2023-08-06T12:59:31;0.73;;;0.30;;
61505;SDS011;47366;51.916;4.574;2023-08-06T13:02:01;0.88;;;0.30;;
61505;SDS011;47366;51.916;4.574;2023-08-06T13:04:27;1.25;;;0.40;;
61505;SDS011;47366;51.916;4.574;2023-08-06T13:06:53;1.40;;;0.20;;
61505;SDS011;47366;51.916;4.574;2023-08-06T13:09:18;0.30;;;0.20;;
61505;SDS011;47366;51.916;4.574;2023-08-06T13:11:44;0.30;;;0.20;;
61505;SDS011;47366;51.916;4.574;2023-08-06T13:14:11;0.63;;;0.20;;
61505;SDS011;47366;51.916;4.574;2023-08-06T13:16:38;0.70;;;0.30;;
61505;SDS011;47366;51.916;4.574;2023-08-06T13:19:05;2.30;;;0.35;;
61505;SDS011;47366;51.916;4.574;2023-08-06T13:21:35;0.10;;;0.10;;
61505;SDS011;47366;51.916;4.574;2023-08-06T13:24:20;1.25;;;0.38;;
61505;SDS011;47366;51.916;4.574;2023-08-06T13:26:46;0.38;;;0.20;;
61505;SDS011;47366;51.916;4.574;2023-08-06T13:29:11;0.15;;;0.10;;
61505;SDS011;47366;51.916;4.574;2023-08-06T13:31:37;0.08;;;0.08;;
61505;SDS011;47366;51.916;4.574;2023-08-06T13:34:02;1.45;;;0.40;;
61505;SDS011;47366;51.916;4.574;2023-08-06T13:36:28;0.50;;;0.20;;
61505;SDS011;47366;51.916;4.574;2023-08-06T13:38:53;1.70;;;0.20;;
61505;SDS011;47366;51.916;4.574;2023-08-06T13:41:19;0.10;;;0.10;;
61505;SDS011;47366;51.916;4.574;2023-08-06T13:43:45;2.08;;;0.40;;
61505;SDS011;47366;51.916;4.574;2023-08-06T13:46:10;0.65;;;0.20;;
61505;SDS011;47366;51.916;4.574;2023-08-06T13:48:41;0.22;;;0.15;;
61505;SDS011;47366;51.916;4.574;2023-08-06T13:51:07;3.17;;;0.95;;
61505;SDS011;47366;51.916;4.574;2023-08-06T13:53:32;0.77;;;0.32;;
61505;SDS011;47366;51.916;4.574;2023-08-06T13:55:57;1.65;;;0.40;;
61505;SDS011;47366;51.916;4.574;2023-08-06T13:58:23;2.30;;;0.47;;
61505;SDS011;47366;51.916;4.574;2023-08-06T14:00:49;1.35;;;0.55;;
61505;SDS011;47366;51.916;4.574;2023-08-06T14:03:14;1.95;;;0.60;;
61505;SDS011;47366;51.916;4.574;2023-08-06T14:05:40;1.80;;;0.52;;
61505;SDS011;47366;51.916;4.574;2023-08-06T14:08:06;1.42;;;0.20;;
61505;SDS011;47366;51.916;4.574;2023-08-06T14:10:32;1.45;;;0.20;;
61505;SDS011;47366;51.916;4.574;2023-08-06T14:12:57;0.40;;;0.20;;
61505;SDS011;47366;51.916;4.574;2023-08-06T14:15:22;1.75;;;0.22;;
61505;SDS011;47366;51.916;4.574;2023-08-06T14:17:48;0.20;;;0.10;;
61505;SDS011;47366;51.916;4.574;2023-08-06T14:20:14;0.80;;;0.20;;
61505;SDS011;47366;51.916;4.574;2023-08-06T14:22:39;0.50;;;0.17;;
61505;SDS011;47366;51.916;4.574;2023-08-06T14:25:05;0.63;;;0.20;;
61505;SDS011;47366;51.916;4.574;2023-08-06T14:27:31;0.43;;;0.05;;
61505;SDS011;47366;51.916;4.574;2023-08-06T14:29:57;1.58;;;0.32;;
61505;SDS011;47366;51.916;4.574;2023-08-06T14:32:22;0.55;;;0.20;;
61505;SDS011;47366;51.916;4.574;2023-08-06T14:34:47;0.43;;;0.10;;
61505;SDS011;47366;51.916;4.574;2023-08-06T14:37:13;0.50;;;0.10;;
61505;SDS011;47366;51.916;4.574;2023-08-06T14:39:38;1.60;;;0.47;;
61505;SDS011;47366;51.916;4.574;2023-08-06T14:42:04;1.02;;;0.15;;
61505;SDS011;47366;51.916;4.574;2023-08-06T14:44:30;0.47;;;0.10;;
61505;SDS011;47366;51.916;4.574;2023-08-06T14:46:55;0.55;;;0.35;;
61505;SDS011;47366;51.916;4.574;2023-08-06T14:49:20;0.38;;;0.08;;
61505;SDS011;47366;51.916;4.574;2023-08-06T14:51:46;1.33;;;0.68;;